St David — 2BHL9 — position and weather

sailwx.info

Track history (hours):
 
Tides and Currents Weather Stations Pressure Air Temp Water Temp Dewpoint Dewpoint Depression Visibility Wind Speed Wind Dir Waves Ship Positions

St David

Last reported at 2016-Jul-22 06:22 UTC. Time now 2016-Jul-25 02:26 UTC.
Position N 38°46' E 001°26'.

Length 60 m; draft 3.4 m.

Type: Pleasure craft. MMSI: 235066164.

Date/timePositionNaut miles runAvg speedWind from/ knotsBaromVisibWave heightAir tempDewpointWater temp
2016-Jul-22 06:22N 38°46' E 001°26'0 0.0
2016-Jul-22 04:29N 38°46' E 001°26'0 0.0
2016-Jul-22 03:22N 38°46' E 001°26'0 0.0
2016-Jul-22 00:16N 38°46' E 001°26'0 0.0
2016-Jul-21 20:16N 38°46' E 001°26'0 0.0
2016-Jul-21 06:16N 38°46' E 001°26'0 0.0
2016-Jul-21 05:28N 38°46' E 001°26'0 0.0
2016-Jul-21 04:16N 38°46' E 001°26'0 0.0
2016-Jul-20 14:11N 38°46' E 001°26'0 0.0
2016-Jul-20 06:29N 38°46' E 001°26'0 0.0
2016-Jul-20 04:29N 38°46' E 001°26'0 0.0
2016-Jul-19 16:25N 38°46' E 001°26'0 0.0
2016-Jul-19 15:25N 38°46' E 001°26'0 0.0
2016-Jul-19 14:24N 38°46' E 001°26'0 0.0
2016-Jul-19 13:32N 38°46' E 001°26'0 0.0
2016-Jul-19 12:32N 38°46' E 001°26'0 0.0
2016-Jul-19 10:22N 38°46' E 001°26'4 3.6
2016-Jul-19 09:17N 38°50' E 001°26'5 6.5
2016-Jul-19 08:31N 38°55' E 001°26'0 0.0
2016-Jul-19 07:30N 38°55' E 001°26'0 0.0
2016-Jul-19 03:28N 38°55' E 001°26'0 0.0
2016-Jul-19 01:28N 38°55' E 001°26'0 0.0
2016-Jul-18 23:32N 38°55' E 001°26'0 0.0
2016-Jul-18 19:05N 38°55' E 001°26'0 0.0
2016-Jul-18 11:06N 38°55' E 001°26'1 0.1
2016-Jul-17 22:09N 38°54' E 001°27'912.8
2016-Jul-17 21:26N 38°59' E 001°37'1112.2
2016-Jul-17 20:34N 39°09' E 001°42'1412.6
2016-Jul-17 19:26N 39°23' E 001°45'1412.5
2016-Jul-17 18:19N 39°36' E 001°49'1012.7
2016-Jul-17 17:34N 39°46' E 001°52'1312.9
2016-Jul-17 16:33N 39°58' E 001°55'1312.7
2016-Jul-17 15:34N 40°11' E 001°58'1312.7
2016-Jul-17 14:33N 40°23' E 002°02'1312.8
2016-Jul-17 13:34N 40°36' E 002°04'1313.0
2016-Jul-17 12:33N 40°49' E 002°08'1313.2
2016-Jul-17 11:33N 41°02' E 002°12'1413.5
2016-Jul-17 10:31N 41°15' E 002°15'1313.0
2016-Jul-17 09:31N 41°28' E 002°19'0 0.0
2016-Jul-17 07:31N 41°28' E 002°19'1211.5
2016-Jul-17 06:29N 41°32' E 002°34'3812.8
2016-Jul-17 03:30N 41°49' E 003°19'1212.9
2016-Jul-17 02:33N 41°57' E 003°32'1312.7
2016-Jul-17 01:33N 42°04' E 003°46'170 4.6
2016-Jul-15 12:20N 43°30' E 007°06'5 6.0
2016-Jul-15 11:31N 43°35' E 007°08'0 0.0
2016-Jul-15 10:31N 43°35' E 007°08'0 0.0
2016-Jul-15 09:31N 43°35' E 007°08'0 0.0
2016-Jul-15 08:31N 43°35' E 007°08'0 0.0
2016-Jul-15 07:31N 43°35' E 007°08'0 0.0
2016-Jul-15 06:31N 43°35' E 007°08'0 0.0
2016-Jul-15 05:25N 43°35' E 007°08'0 0.0
2016-Jul-15 04:31N 43°35' E 007°08'0 0.0
2016-Jul-15 03:31N 43°35' E 007°08'0 0.0
2016-Jul-15 02:31N 43°35' E 007°08'0 0.0
2016-Jul-15 01:31N 43°35' E 007°08'0 0.0
2016-Jul-15 00:25N 43°35' E 007°08'0 0.0
2016-Jul-14 23:31N 43°35' E 007°08'0 0.0
2016-Jul-14 22:31N 43°35' E 007°08'0 0.0
2016-Jul-14 21:31N 43°35' E 007°08'0 0.0
2016-Jul-14 20:25N 43°35' E 007°08'0 0.0
2016-Jul-14 19:31N 43°35' E 007°08'0 0.0
2016-Jul-14 18:31N 43°35' E 007°08'0 0.0
2016-Jul-14 17:31N 43°35' E 007°08'0 0.0
2016-Jul-14 16:19N 43°35' E 007°08'0 0.0
2016-Jul-14 15:31N 43°35' E 007°08'0 0.0
2016-Jul-14 14:31N 43°35' E 007°08'0 0.0
2016-Jul-14 13:31N 43°35' E 007°08'0 0.0
2016-Jul-14 12:25N 43°35' E 007°08'0 0.0
2016-Jul-14 11:31N 43°35' E 007°08'0 0.0
2016-Jul-14 10:31N 43°35' E 007°08'0 0.0
2016-Jul-14 09:31N 43°35' E 007°08'0 0.0
2016-Jul-14 08:31N 43°35' E 007°08'0 0.0
2016-Jul-14 07:31N 43°35' E 007°08'0 0.0
2016-Jul-14 06:31N 43°35' E 007°08'0 0.0
2016-Jul-14 05:31N 43°35' E 007°08'0 0.0
2016-Jul-14 04:31N 43°35' E 007°08'0 0.0
2016-Jul-14 03:31N 43°35' E 007°08'0 0.0
2016-Jul-14 02:25N 43°35' E 007°08'0 0.0
2016-Jul-14 01:31N 43°35' E 007°08'0 0.0
2016-Jul-14 00:31N 43°35' E 007°08'0 0.0
2016-Jul-13 23:31N 43°35' E 007°08'0 0.0
2016-Jul-13 22:31N 43°35' E 007°08'0 0.0
2016-Jul-13 21:31N 43°35' E 007°08'0 0.0
2016-Jul-13 20:31N 43°35' E 007°08'0 0.0
2016-Jul-13 19:31N 43°35' E 007°08'0 0.0
2016-Jul-13 18:31N 43°35' E 007°08'0 0.0
2016-Jul-13 17:31N 43°35' E 007°08'0 0.0
2016-Jul-13 16:31N 43°35' E 007°08'0 0.0
2016-Jul-13 15:31N 43°35' E 007°08'0 0.0
2016-Jul-13 14:31N 43°35' E 007°08'0 0.0
2016-Jul-13 13:31N 43°35' E 007°08'0 0.0
2016-Jul-13 12:31N 43°35' E 007°08'0 0.5
2016-Jul-13 11:33N 43°35' E 007°08'5 5.2
2016-Jul-13 10:33N 43°31' E 007°06'4 4.1
2016-Jul-13 09:33N 43°33' E 007°01'0 0.0
2016-Jul-13 08:24N 43°33' E 007°01'0 0.0
2016-Jul-13 07:24N 43°33' E 007°01'0 0.0
2016-Jul-13 06:27N 43°33' E 007°01'0 0.0
2016-Jul-13 05:27N 43°33' E 007°01'0 0.0
2016-Jul-13 04:27N 43°33' E 007°01'0 0.0
2016-Jul-13 03:27N 43°33' E 007°01'0 0.0
2016-Jul-13 02:30N 43°33' E 007°01'0 0.0
2016-Jul-13 01:30N 43°33' E 007°01'0 0.0
2016-Jul-13 00:33N 43°33' E 007°01'0 0.0
2016-Jul-12 23:33N 43°33' E 007°01'0 0.0
2016-Jul-12 22:33N 43°33' E 007°01'0 0.0
2016-Jul-12 21:33N 43°33' E 007°01'0 0.0
2016-Jul-12 20:33N 43°33' E 007°01'0 0.1
2016-Jul-12 19:33N 43°33' E 007°01'0 0.1
2016-Jul-12 18:26N 43°33' E 007°01'0 0.0
2016-Jul-12 17:26N 43°33' E 007°01'0 0.0
2016-Jul-12 16:29N 43°33' E 007°01'0 0.0
2016-Jul-12 15:29N 43°33' E 007°01'0 0.0
2016-Jul-12 07:23N 43°33' E 007°01'  
Track history (hours):
 
Tides and Currents Weather Stations Pressure Air Temp Water Temp Dewpoint Dewpoint Depression Visibility Wind Speed Wind Dir Waves Ship Positions

St David

Last reported at 2016-Jul-22 06:22 UTC. Time now 2016-Jul-25 02:26 UTC.
Position N 38°46' E 001°26'.

Length 60 m; draft 3.4 m.

Type: Pleasure craft. MMSI: 235066164.

Date/timePositionNaut miles runAvg speedWind from/ knotsBaromVisibWave heightAir tempDewpointWater temp
2016-Jul-22 06:22N 38°46' E 001°26'0 0.0
2016-Jul-22 04:29N 38°46' E 001°26'0 0.0
2016-Jul-22 03:22N 38°46' E 001°26'0 0.0
2016-Jul-22 00:16N 38°46' E 001°26'0 0.0
2016-Jul-21 20:16N 38°46' E 001°26'0 0.0
2016-Jul-21 06:16N 38°46' E 001°26'0 0.0
2016-Jul-21 05:28N 38°46' E 001°26'0 0.0
2016-Jul-21 04:16N 38°46' E 001°26'0 0.0
2016-Jul-20 14:11N 38°46' E 001°26'0 0.0
2016-Jul-20 06:29N 38°46' E 001°26'0 0.0
2016-Jul-20 04:29N 38°46' E 001°26'0 0.0
2016-Jul-19 16:25N 38°46' E 001°26'0 0.0
2016-Jul-19 15:25N 38°46' E 001°26'0 0.0
2016-Jul-19 14:24N 38°46' E 001°26'0 0.0
2016-Jul-19 13:32N 38°46' E 001°26'0 0.0
2016-Jul-19 12:32N 38°46' E 001°26'0 0.0
2016-Jul-19 10:22N 38°46' E 001°26'4 3.6
2016-Jul-19 09:17N 38°50' E 001°26'5 6.5
2016-Jul-19 08:31N 38°55' E 001°26'0 0.0
2016-Jul-19 07:30N 38°55' E 001°26'0 0.0
2016-Jul-19 03:28N 38°55' E 001°26'0 0.0
2016-Jul-19 01:28N 38°55' E 001°26'0 0.0
2016-Jul-18 23:32N 38°55' E 001°26'0 0.0
2016-Jul-18 19:05N 38°55' E 001°26'0 0.0
2016-Jul-18 11:06N 38°55' E 001°26'1 0.1
2016-Jul-17 22:09N 38°54' E 001°27'912.8
2016-Jul-17 21:26N 38°59' E 001°37'1112.2
2016-Jul-17 20:34N 39°09' E 001°42'1412.6
2016-Jul-17 19:26N 39°23' E 001°45'1412.5
2016-Jul-17 18:19N 39°36' E 001°49'1012.7
2016-Jul-17 17:34N 39°46' E 001°52'1312.9
2016-Jul-17 16:33N 39°58' E 001°55'1312.7
2016-Jul-17 15:34N 40°11' E 001°58'1312.7
2016-Jul-17 14:33N 40°23' E 002°02'1312.8
2016-Jul-17 13:34N 40°36' E 002°04'1313.0
2016-Jul-17 12:33N 40°49' E 002°08'1313.2
2016-Jul-17 11:33N 41°02' E 002°12'1413.5
2016-Jul-17 10:31N 41°15' E 002°15'1313.0
2016-Jul-17 09:31N 41°28' E 002°19'0 0.0
2016-Jul-17 07:31N 41°28' E 002°19'1211.5
2016-Jul-17 06:29N 41°32' E 002°34'3812.8
2016-Jul-17 03:30N 41°49' E 003°19'1212.9
2016-Jul-17 02:33N 41°57' E 003°32'1312.7
2016-Jul-17 01:33N 42°04' E 003°46'170 4.6
2016-Jul-15 12:20N 43°30' E 007°06'5 6.0
2016-Jul-15 11:31N 43°35' E 007°08'0 0.0
2016-Jul-15 10:31N 43°35' E 007°08'0 0.0
2016-Jul-15 09:31N 43°35' E 007°08'0 0.0
2016-Jul-15 08:31N 43°35' E 007°08'0 0.0
2016-Jul-15 07:31N 43°35' E 007°08'0 0.0
2016-Jul-15 06:31N 43°35' E 007°08'0 0.0
2016-Jul-15 05:25N 43°35' E 007°08'0 0.0
2016-Jul-15 04:31N 43°35' E 007°08'0 0.0
2016-Jul-15 03:31N 43°35' E 007°08'0 0.0
2016-Jul-15 02:31N 43°35' E 007°08'0 0.0
2016-Jul-15 01:31N 43°35' E 007°08'0 0.0
2016-Jul-15 00:25N 43°35' E 007°08'0 0.0
2016-Jul-14 23:31N 43°35' E 007°08'0 0.0
2016-Jul-14 22:31N 43°35' E 007°08'0 0.0
2016-Jul-14 21:31N 43°35' E 007°08'0 0.0
2016-Jul-14 20:25N 43°35' E 007°08'0 0.0
2016-Jul-14 19:31N 43°35' E 007°08'0 0.0
2016-Jul-14 18:31N 43°35' E 007°08'0 0.0
2016-Jul-14 17:31N 43°35' E 007°08'0 0.0
2016-Jul-14 16:19N 43°35' E 007°08'0 0.0
2016-Jul-14 15:31N 43°35' E 007°08'0 0.0
2016-Jul-14 14:31N 43°35' E 007°08'0 0.0
2016-Jul-14 13:31N 43°35' E 007°08'0 0.0
2016-Jul-14 12:25N 43°35' E 007°08'0 0.0
2016-Jul-14 11:31N 43°35' E 007°08'0 0.0
2016-Jul-14 10:31N 43°35' E 007°08'0 0.0
2016-Jul-14 09:31N 43°35' E 007°08'0 0.0
2016-Jul-14 08:31N 43°35' E 007°08'0 0.0
2016-Jul-14 07:31N 43°35' E 007°08'0 0.0
2016-Jul-14 06:31N 43°35' E 007°08'0 0.0
2016-Jul-14 05:31N 43°35' E 007°08'0 0.0
2016-Jul-14 04:31N 43°35' E 007°08'0 0.0
2016-Jul-14 03:31N 43°35' E 007°08'0 0.0
2016-Jul-14 02:25N 43°35' E 007°08'0 0.0
2016-Jul-14 01:31N 43°35' E 007°08'0 0.0
2016-Jul-14 00:31N 43°35' E 007°08'0 0.0
2016-Jul-13 23:31N 43°35' E 007°08'0 0.0
2016-Jul-13 22:31N 43°35' E 007°08'0 0.0
2016-Jul-13 21:31N 43°35' E 007°08'0 0.0
2016-Jul-13 20:31N 43°35' E 007°08'0 0.0
2016-Jul-13 19:31N 43°35' E 007°08'0 0.0
2016-Jul-13 18:31N 43°35' E 007°08'0 0.0
2016-Jul-13 17:31N 43°35' E 007°08'0 0.0
2016-Jul-13 16:31N 43°35' E 007°08'0 0.0
2016-Jul-13 15:31N 43°35' E 007°08'0 0.0
2016-Jul-13 14:31N 43°35' E 007°08'0 0.0
2016-Jul-13 13:31N 43°35' E 007°08'0 0.0
2016-Jul-13 12:31N 43°35' E 007°08'0 0.5
2016-Jul-13 11:33N 43°35' E 007°08'5 5.2
2016-Jul-13 10:33N 43°31' E 007°06'4 4.1
2016-Jul-13 09:33N 43°33' E 007°01'0 0.0
2016-Jul-13 08:24N 43°33' E 007°01'0 0.0
2016-Jul-13 07:24N 43°33' E 007°01'0 0.0
2016-Jul-13 06:27N 43°33' E 007°01'0 0.0
2016-Jul-13 05:27N 43°33' E 007°01'0 0.0
2016-Jul-13 04:27N 43°33' E 007°01'0 0.0
2016-Jul-13 03:27N 43°33' E 007°01'0 0.0
2016-Jul-13 02:30N 43°33' E 007°01'0 0.0
2016-Jul-13 01:30N 43°33' E 007°01'0 0.0
2016-Jul-13 00:33N 43°33' E 007°01'0 0.0
2016-Jul-12 23:33N 43°33' E 007°01'0 0.0
2016-Jul-12 22:33N 43°33' E 007°01'0 0.0
2016-Jul-12 21:33N 43°33' E 007°01'0 0.0
2016-Jul-12 20:33N 43°33' E 007°01'0 0.1
2016-Jul-12 19:33N 43°33' E 007°01'0 0.1
2016-Jul-12 18:26N 43°33' E 007°01'0 0.0
2016-Jul-12 17:26N 43°33' E 007°01'0 0.0
2016-Jul-12 16:29N 43°33' E 007°01'0 0.0
2016-Jul-12 15:29N 43°33' E 007°01'0 0.0
2016-Jul-12 07:23N 43°33' E 007°01'  

Dump ship's entire track history